Trenton, Nebraska
Current Conditions -  °F | °C
As of 1:53 AM on Sunday 26 Oct 2014 (Local Time) from KMCK Reporting Station
Clear Clear  
Wind Chill: 52°   Ceiling: Unl
Heat Index: 52°   Visibility: 10mi
Dew Point: 48°   Wind: 7mph
Humidity: 86%   Direction: 90°E
Pressure: 29.85"   Gusts: NA
Location:  40.18°N, 101.01°W
Report Text: KMCK 260653Z AUTO 09006KT 10SM CLR 11/09 A2985 RMK AO2 SLP094 T01110089
Loading
Personal Weather Stations






























Interactive Weather Map
Tropical Storm Tracking
New forecast layout! Learn more

10-Day Weather Forecast

Advertisements
Track Severe Weather on mobile